Time;durP1;ratioP1;P1;durP2;ratioP2;P2;SDS_P1;SDS_P2;PMS_P1;PMS_P2;Temp;Humidity;BMP_temperature;BMP_pressure;BME280_temperature;BME280_humidity;BME280_pressure;Samples;Min_cycle;Max_cycle;Signal;HPM_P1;HPM_P2
2022/07/20 00:00:13;;;;;;;10.75;3.10;;;20.50;99.90;;;;;;7331833;32;20104;-61
2022/07/20 00:04:16;;;;;;;4.60;2.75;;;20.50;99.90;;;;;;7345954;32;20108;-62
2022/07/20 00:11:19;;;;;;;6.20;3.40;;;20.40;99.90;;;;;;7357338;32;20202;-61
2022/07/20 00:12:39;;;;;;;5.32;2.75;;;20.40;99.90;;;;;;7357825;32;20176;-62
2022/07/20 00:16:41;;;;;;;6.72;2.92;;;20.40;99.90;;;;;;7357911;32;20123;-61
2022/07/20 00:21:03;;;;;;;9.43;2.95;;;20.40;99.90;;;;;;7356663;32;20579;-62
2022/07/20 00:25:05;;;;;;;6.43;2.72;;;20.30;99.90;;;;;;7357663;32;20501;-61
2022/07/20 00:29:07;;;;;;;5.97;2.70;;;20.20;99.90;;;;;;7361825;32;20285;-61
2022/07/20 00:33:09;;;;;;;8.35;3.12;;;20.10;99.90;;;;;;7361885;32;20122;-63
2022/07/20 00:37:10;;;;;;;9.10;2.80;;;20.10;99.90;;;;;;7362386;32;20119;-61
2022/07/20 00:41:13;;;;;;;7.87;2.72;;;20.00;99.90;;;;;;7361402;32;20159;-61
2022/07/20 00:45:14;;;;;;;7.95;2.83;;;20.00;99.90;;;;;;7361997;32;20186;-61
2022/07/20 00:49:16;;;;;;;8.90;2.83;;;19.90;99.90;;;;;;7361603;32;20103;-61
2022/07/20 00:53:18;;;;;;;6.70;2.90;;;19.90;99.90;;;;;;7360671;32;20111;-61
2022/07/20 00:57:26;;;;;;;3.28;2.75;;;19.80;99.90;;;;;;7346337;32;20099;-61
2022/07/20 01:01:28;;;;;;;7.12;2.67;;;19.80;99.90;;;;;;7361545;32;20107;-60
2022/07/20 01:05:30;;;;;;;7.12;2.87;;;19.60;99.90;;;;;;7360993;32;20095;-60
2022/07/20 01:09:32;;;;;;;4.10;2.60;;;19.60;99.90;;;;;;7360529;32;20103;-63
2022/07/20 01:13:34;;;;;;;6.43;2.60;;;19.50;99.90;;;;;;7361354;32;20107;-61
2022/07/20 01:17:36;;;;;;;5.15;2.65;;;19.60;99.90;;;;;;7360132;32;20784;-60
2022/07/20 01:21:45;;;;;;;7.72;2.70;;;19.60;99.90;;;;;;7361191;32;20825;-61
2022/07/20 01:25:47;;;;;;;4.90;2.75;;;19.60;99.90;;;;;;7339890;32;20297;-60
2022/07/20 01:29:48;;;;;;;5.35;2.50;;;19.70;99.90;;;;;;7360296;32;20187;-61
2022/07/20 01:33:50;;;;;;;5.55;2.90;;;19.80;99.90;;;;;;7360333;32;20104;-61
2022/07/20 01:37:52;;;;;;;8.95;3.30;;;19.90;99.90;;;;;;7359668;32;20484;-60
2022/07/20 01:41:54;;;;;;;4.80;2.72;;;20.00;99.90;;;;;;7360270;32;20164;-61
2022/07/20 01:45:56;;;;;;;5.12;2.80;;;20.10;99.90;;;;;;7360886;32;20424;-61
2022/07/20 01:49:58;;;;;;;7.43;2.65;;;20.20;99.90;;;;;;7360163;32;20190;-61
2022/07/20 01:53:59;;;;;;;4.50;2.50;;;20.40;99.90;;;;;;7354323;32;20149;-61
2022/07/20 01:58:01;;;;;;;5.15;2.50;;;20.60;99.90;;;;;;7347575;32;20151;-61
2022/07/20 02:02:03;;;;;;;9.35;2.50;;;20.80;99.90;;;;;;7360115;32;20107;-61
2022/07/20 02:06:05;;;;;;;5.18;2.55;;;21.10;99.90;;;;;;7360115;32;20107;-61
2022/07/20 02:10:09;;;;;;;4.22;2.50;;;21.30;99.90;;;;;;7359150;32;20174;-61
2022/07/20 02:14:11;;;;;;;12.07;2.92;;;21.60;99.90;;;;;;7359385;32;20190;-61
2022/07/20 02:18:13;;;;;;;8.07;3.05;;;21.90;99.90;;;;;;7359283;32;20197;-62
2022/07/20 02:22:15;;;;;;;7.93;2.40;;;22.20;99.90;;;;;;7359952;32;20198;-62
2022/07/20 02:26:17;;;;;;;5.62;2.17;;;22.50;99.70;;;;;;7359497;32;20143;-62
2022/07/20 02:30:19;;;;;;;6.60;2.42;;;22.70;98.60;;;;;;7358558;32;20160;-61
2022/07/20 02:34:21;;;;;;;6.10;2.40;;;22.90;97.50;;;;;;7352277;32;20182;-61
2022/07/20 02:38:24;;;;;;;4.85;2.60;;;23.20;95.90;;;;;;7337539;32;20122;-62
2022/07/20 02:42:25;;;;;;;5.85;2.75;;;23.40;94.50;;;;;;7334619;32;20627;-61
2022/07/20 02:46:27;;;;;;;7.70;2.53;;;23.70;92.30;;;;;;7358739;32;20213;-61
2022/07/20 02:50:30;;;;;;;4.75;2.50;;;23.70;92.60;;;;;;7357745;32;20111;-61
2022/07/20 02:54:32;;;;;;;5.32;2.20;;;23.80;91.30;;;;;;7359035;32;20832;-61
2022/07/20 02:58:34;;;;;;;5.45;2.30;;;23.80;90.90;;;;;;7341673;32;20099;-61
2022/07/20 03:02:35;;;;;;;3.85;2.47;;;23.90;90.30;;;;;;7334111;32;20468;-61
2022/07/20 03:06:37;;;;;;;9.95;2.65;;;24.00;90.30;;;;;;7358860;32;20204;-60
2022/07/20 03:10:39;;;;;;;4.50;2.80;;;24.10;90.00;;;;;;7357938;32;20118;-61
2022/07/20 03:14:41;;;;;;;3.37;2.28;;;24.30;86.90;;;;;;7358735;32;20121;-61
2022/07/20 03:18:42;;;;;;;5.15;2.30;;;24.30;86.10;;;;;;7357958;32;20099;-61
2022/07/20 03:22:44;;;;;;;10.15;2.78;;;24.40;86.30;;;;;;7358532;32;20107;-61
2022/07/20 03:26:46;;;;;;;5.70;2.53;;;24.40;84.30;;;;;;7358506;32;20123;-61
2022/07/20 03:30:47;;;;;;;5.20;2.47;;;24.30;86.90;;;;;;7357716;32;20217;-61
2022/07/20 03:34:49;;;;;;;3.35;2.17;;;24.30;85.00;;;;;;7358741;32;20495;-61
2022/07/20 03:38:51;;;;;;;5.12;2.50;;;24.30;84.50;;;;;;7357340;32;20484;-61
2022/07/20 03:42:53;;;;;;;8.52;3.10;;;24.10;84.10;;;;;;7357328;32;20099;-61
2022/07/20 03:46:55;;;;;;;5.20;2.67;;;24.00;84.30;;;;;;7358600;32;20151;-61
2022/07/20 03:50:57;;;;;;;5.07;2.40;;;23.80;85.40;;;;;;7356963;32;20108;-62
2022/07/20 03:54:58;;;;;;;5.82;2.45;;;23.60;90.00;;;;;;7357286;32;20195;-62
2022/07/20 03:59:01;;;;;;;10.85;2.87;;;23.40;92.20;;;;;;7338572;32;20111;-61
2022/07/20 04:03:03;;;;;;;6.95;2.72;;;23.10;93.70;;;;;;7342567;32;20125;-61
2022/07/20 04:07:05;;;;;;;3.92;2.55;;;22.80;94.70;;;;;;7365808;32;20099;-61
2022/07/20 04:11:07;;;;;;;6.10;2.60;;;22.60;96.40;;;;;;7360021;32;20171;-61
2022/07/20 04:15:09;;;;;;;11.52;2.87;;;22.50;95.60;;;;;;7356834;32;20575;-61
2022/07/20 04:19:11;;;;;;;5.65;2.60;;;22.40;94.90;;;;;;7365245;32;20111;-61
2022/07/20 04:23:15;;;;;;;6.78;2.60;;;22.40;94.40;;;;;;7364519;32;20453;-61
2022/07/20 04:27:17;;;;;;;7.70;3.15;;;22.40;94.40;;;;;;7364649;32;20522;-61
2022/07/20 04:31:18;;;;;;;8.73;3.10;;;22.50;94.50;;;;;;7364817;32;20155;-61
2022/07/20 04:35:20;;;;;;;3.95;2.70;;;22.60;94.00;;;;;;7365446;32;20167;-61
2022/07/20 04:39:22;;;;;;;7.90;2.72;;;22.80;93.90;;;;;;7364783;32;20138;-61
2022/07/20 04:43:24;;;;;;;6.22;3.10;;;22.90;94.90;;;;;;7364805;32;20524;-60
2022/07/20 04:47:26;;;;;;;4.32;2.70;;;23.00;95.40;;;;;;7365854;32;20171;-63
2022/07/20 04:51:27;;;;;;;5.68;3.42;;;23.30;94.30;;;;;;7364916;32;20243;-64
2022/07/20 04:55:29;;;;;;;4.75;3.08;;;23.60;94.10;;;;;;7350370;32;20088;-64
2022/07/20 04:59:31;;;;;;;5.00;3.30;;;24.00;93.60;;;;;;7362843;32;20118;-64
2022/07/20 05:03:33;;;;;;;9.00;3.40;;;24.40;91.30;;;;;;7365332;32;20104;-64
2022/07/20 05:07:35;;;;;;;7.25;3.67;;;24.90;90.40;;;;;;7364831;32;20198;-64
2022/07/20 05:11:38;;;;;;;8.63;3.95;;;25.20;89.00;;;;;;7362479;32;20129;-64
2022/07/20 05:15:40;;;;;;;13.73;5.37;;;25.70;88.40;;;;;;7360919;32;20153;-64
2022/07/20 05:19:42;;;;;;;13.23;5.62;;;25.90;87.00;;;;;;7360223;32;20153;-64
2022/07/20 05:23:44;;;;;;;11.12;6.28;;;26.10;86.80;;;;;;7361277;32;20771;-64
2022/07/20 05:27:46;;;;;;;11.12;6.87;;;26.30;87.60;;;;;;7360871;32;20127;-64
2022/07/20 05:31:48;;;;;;;14.75;7.28;;;26.10;90.00;;;;;;7361407;32;20266;-64
2022/07/20 05:35:50;;;;;;;14.82;7.65;;;26.10;90.50;;;;;;7361050;32;20178;-64
2022/07/20 05:39:52;;;;;;;15.50;8.10;;;26.20;90.50;;;;;;7360516;32;20129;-64
2022/07/20 05:43:53;;;;;;;13.38;8.05;;;26.20;90.80;;;;;;7359012;32;20107;-65
2022/07/20 05:47:55;;;;;;;17.05;9.38;;;26.00;91.30;;;;;;7360019;32;20781;-65
2022/07/20 05:51:57;;;;;;;18.45;10.77;;;25.90;91.50;;;;;;7360163;32;20111;-65
2022/07/20 05:55:59;;;;;;;16.65;10.70;;;25.60;92.50;;;;;;7342778;32;20166;-65
2022/07/20 06:00:01;;;;;;;15.18;10.50;;;25.30;94.10;;;;;;7360271;32;20509;-65
2022/07/20 06:04:03;;;;;;;19.40;12.20;;;25.20;94.40;;;;;;7360188;32;20481;-66
2022/07/20 06:08:05;;;;;;;20.33;11.40;;;24.90;95.60;;;;;;7359776;32;20194;-65
2022/07/20 06:12:07;;;;;;;19.42;11.95;;;24.70;96.30;;;;;;7360120;32;20523;-65
2022/07/20 06:16:09;;;;;;;22.65;12.63;;;24.60;97.20;;;;;;7360140;32;20123;-64
2022/07/20 06:20:14;;;;;;;16.33;12.05;;;24.90;97.70;;;;;;7358492;32;20161;-64
2022/07/20 06:24:15;;;;;;;19.02;12.98;;;25.40;97.40;;;;;;7359960;32;20139;-65
2022/07/20 06:28:19;;;;;;;19.60;12.90;;;26.20;96.20;;;;;;7358886;32;20100;-64
2022/07/20 06:32:21;;;;;;;21.20;13.50;;;26.90;95.80;;;;;;7359604;32;20123;-66
2022/07/20 06:36:22;;;;;;;21.92;14.70;;;27.60;94.40;;;;;;7359337;32;20121;-65
2022/07/20 06:40:24;;;;;;;20.42;15.45;;;28.10;93.50;;;;;;7359084;32;20801;-65
2022/07/20 06:44:26;;;;;;;22.13;14.85;;;28.50;92.60;;;;;;7359022;32;20187;-67
2022/07/20 06:48:28;;;;;;;20.65;16.23;;;28.70;93.10;;;;;;7358471;32;20269;-63
2022/07/20 06:52:34;;;;;;;23.42;15.45;;;28.80;92.20;;;;;;7358576;32;20145;-63
2022/07/20 06:56:37;;;;;;;22.45;16.23;;;29.40;91.30;;;;;;7341351;32;20255;-64
2022/07/20 07:00:39;;;;;;;24.02;15.52;;;29.10;91.60;;;;;;7357974;32;20163;-64
2022/07/20 07:04:40;;;;;;;27.02;16.37;;;28.60;92.50;;;;;;7359400;32;20123;-64
2022/07/20 07:08:42;;;;;;;23.70;16.67;;;27.90;93.60;;;;;;7347352;32;20565;-63
2022/07/20 07:12:45;;;;;;;22.92;16.67;;;27.30;94.50;;;;;;7333070;32;20123;-63
2022/07/20 07:16:46;;;;;;;23.65;17.35;;;27.00;95.10;;;;;;7333266;32;20108;-63
2022/07/20 07:20:48;;;;;;;22.45;17.42;;;27.20;94.50;;;;;;7331796;32;20383;-64
2022/07/20 07:24:50;;;;;;;23.17;16.98;;;27.30;94.90;;;;;;7349748;32;20135;-64
2022/07/20 07:28:52;;;;;;;26.60;17.12;;;27.40;95.70;;;;;;7357476;32;20155;-64
2022/07/20 07:32:55;;;;;;;25.50;17.55;;;27.80;94.70;;;;;;7358095;32;20121;-63
2022/07/20 07:36:57;;;;;;;20.27;16.60;;;27.60;95.10;;;;;;7357716;32;20236;-64
2022/07/20 07:40:59;;;;;;;26.12;16.48;;;27.60;95.00;;;;;;7356913;32;20264;-65
2022/07/20 07:45:06;;;;;;;32.13;18.20;;;27.60;95.20;;;;;;7358191;32;20122;-63
2022/07/20 07:49:07;;;;;;;;;;;27.30;94.80;;;;;;7357349;32;20175;-63
2022/07/20 07:53:11;;;;;;;24.90;18.95;;;27.10;95.50;;;;;;7357599;32;20058;-63
2022/07/20 07:57:13;;;;;;;22.48;18.80;;;26.80;96.20;;;;;;7348477;32;20145;-63
2022/07/20 08:01:14;;;;;;;22.10;18.33;;;26.70;96.10;;;;;;7331688;32;20182;-64
2022/07/20 08:05:16;;;;;;;21.08;17.83;;;26.80;96.20;;;;;;7332677;32;20164;-63
2022/07/20 08:09:19;;;;;;;25.75;19.00;;;26.50;95.90;;;;;;7331103;32;20690;-63
2022/07/20 08:13:21;;;;;;;26.60;17.95;;;26.50;96.60;;;;;;7343595;32;20470;-63
2022/07/20 08:17:23;;;;;;;26.00;17.48;;;26.80;97.10;;;;;;7357979;32;20158;-64
2022/07/20 08:21:24;;;;;;;22.50;17.58;;;26.90;96.80;;;;;;7356638;32;20206;-63
2022/07/20 08:25:34;;;;;;;21.02;16.80;;;26.90;96.70;;;;;;7357255;32;20122;-62
2022/07/20 08:29:36;;;;;;;22.25;16.80;;;26.80;96.90;;;;;;7356621;32;20134;-63
2022/07/20 08:33:38;;;;;;;26.45;16.37;;;27.00;96.90;;;;;;7357462;32;20107;-63
2022/07/20 08:37:40;;;;;;;21.83;16.12;;;27.70;95.80;;;;;;7356699;32;20099;-63
2022/07/20 08:41:42;;;;;;;22.17;16.05;;;28.50;94.30;;;;;;7356846;32;20111;-64
2022/07/20 08:45:59;;;;;;;19.75;15.90;;;28.80;93.30;;;;;;7357360;32;20095;-65
2022/07/20 08:50:01;;;;;;;21.70;15.88;;;29.00;92.40;;;;;;7361534;32;20533;-64
2022/07/20 08:54:03;;;;;;;26.23;15.85;;;29.60;91.50;;;;;;7355677;32;20160;-64
2022/07/20 08:58:05;;;;;;;19.80;15.40;;;29.70;90.90;;;;;;7343198;32;20190;-63
2022/07/20 09:02:08;;;;;;;21.23;14.73;;;29.70;90.20;;;;;;7336220;32;20565;-63
2022/07/20 09:06:11;;;;;;;19.45;15.30;;;30.00;90.50;;;;;;7336657;32;20112;-63
2022/07/20 09:10:17;;;;;;;18.15;14.18;;;30.90;89.00;;;;;;7335237;32;20186;-64
2022/07/20 09:14:41;;;;;;;25.50;15.10;;;30.90;87.50;;;;;;7355217;32;20196;-64
2022/07/20 09:18:43;;;;;;;23.75;14.35;;;31.60;86.40;;;;;;7361054;32;20402;-64
2022/07/20 09:22:47;;;;;;;19.05;15.00;;;32.20;83.80;;;;;;7361386;32;20103;-64
2022/07/20 09:27:03;;;;;;;17.87;13.30;;;31.70;83.80;;;;;;7361843;32;20198;-63
2022/07/20 09:31:11;;;;;;;18.87;14.35;;;31.40;84.10;;;;;;7360655;32;20102;-64
2022/07/20 09:35:13;;;;;;;18.50;12.30;;;31.60;83.40;;;;;;7361168;32;20127;-63
2022/07/20 09:39:21;;;;;;;18.60;12.98;;;31.30;80.20;;;;;;7361032;32;20119;-63
2022/07/20 09:43:28;;;;;;;18.98;12.90;;;30.90;81.70;;;;;;7346057;32;20549;-64
2022/07/20 09:47:30;;;;;;;15.68;11.77;;;30.40;83.10;;;;;;7353503;32;20111;-63
2022/07/20 09:51:37;;;;;;;19.98;13.05;;;29.70;85.20;;;;;;7360800;32;20118;-63
2022/07/20 09:55:40;;;;;;;24.65;13.85;;;29.70;84.20;;;;;;7344588;32;20209;-63
2022/07/20 09:59:47;;;;;;;19.08;12.95;;;29.40;87.40;;;;;;7357779;32;20103;-63
2022/07/20 10:03:50;;;;;;;19.37;13.18;;;29.60;86.90;;;;;;7360340;32;20103;-63
2022/07/20 10:07:53;;;;;;;15.38;12.15;;;29.20;87.80;;;;;;7360131;32;20107;-63
2022/07/20 10:11:55;;;;;;;18.98;12.30;;;28.90;89.00;;;;;;7360580;32;20134;-63
2022/07/20 10:16:16;;;;;;;19.25;12.10;;;28.80;90.40;;;;;;7360216;32;20112;-64
2022/07/20 10:20:36;;;;;;;14.87;11.30;;;29.40;88.60;;;;;;7359503;32;20099;-63
2022/07/20 10:24:39;;;;;;;17.73;12.15;;;29.90;88.40;;;;;;7360406;32;20187;-64
2022/07/20 10:28:41;;;;;;;15.45;11.52;;;29.90;87.80;;;;;;7358961;32;20786;-63
2022/07/20 10:32:57;;;;;;;17.35;11.23;;;29.80;87.50;;;;;;7359855;32;20172;-63
2022/07/20 10:37:25;;;;;;;17.67;11.23;;;29.70;88.40;;;;;;7359224;32;20190;-63
2022/07/20 10:41:35;;;;;;;18.67;11.95;;;30.10;88.70;;;;;;7359233;32;20566;-63
2022/07/20 10:45:37;;;;;;;16.80;11.82;;;30.40;88.40;;;;;;7358830;32;20168;-64
2022/07/20 10:50:00;;;;;;;19.25;12.25;;;30.70;86.70;;;;;;7358062;32;20223;-63
2022/07/20 10:54:34;;;;;;;16.00;12.13;;;31.00;86.20;;;;;;7358670;32;20743;-64
2022/07/20 10:58:40;;;;;;;16.50;11.07;;;31.10;85.90;;;;;;7340784;32;20123;-64
2022/07/20 11:02:42;;;;;;;20.08;12.88;;;31.50;86.60;;;;;;7333134;32;20120;-64
2022/07/20 11:06:44;;;;;;;19.20;12.00;;;31.20;84.20;;;;;;7333199;32;20095;-64
2022/07/20 11:10:47;;;;;;;19.70;12.60;;;31.20;86.60;;;;;;7355031;32;20518;-63
2022/07/20 11:14:51;;;;;;;15.32;11.75;;;31.20;85.60;;;;;;7359154;32;20231;-64
2022/07/20 11:18:54;;;;;;;15.10;11.57;;;30.80;85.10;;;;;;7357395;32;20536;-64
2022/07/20 11:22:58;;;;;;;18.83;12.23;;;30.70;87.00;;;;;;7359125;32;20103;-64
2022/07/20 11:27:14;;;;;;;21.05;11.55;;;31.00;83.70;;;;;;7358595;32;20206;-64
2022/07/20 11:31:18;;;;;;;17.30;10.63;;;31.00;85.40;;;;;;7357612;32;20190;-63
2022/07/20 11:35:20;;;;;;;12.73;10.00;;;31.00;86.00;;;;;;7358395;32;20235;-63
2022/07/20 11:39:22;;;;;;;17.08;9.80;;;31.20;84.90;;;;;;7357911;32;20107;-63
2022/07/20 11:43:24;;;;;;;16.42;10.45;;;31.60;82.30;;;;;;7358199;32;20106;-63
2022/07/20 11:47:27;;;;;;;14.25;9.80;;;31.30;83.20;;;;;;7357377;32;20148;-63
2022/07/20 11:51:31;;;;;;;15.30;9.55;;;31.40;81.80;;;;;;7356278;32;20193;-63
2022/07/20 11:55:37;;;;;;;18.55;10.02;;;31.50;82.30;;;;;;7358064;32;20413;-63
2022/07/20 11:59:45;;;;;;;12.23;9.80;;;31.30;83.70;;;;;;7352134;32;20164;-64
2022/07/20 12:03:50;;;;;;;9.48;8.43;;;31.20;81.40;;;;;;7357602;32;20214;-63
2022/07/20 12:08:07;;;;;;;14.73;8.43;;;31.20;81.40;;;;;;7357590;32;20194;-63
2022/07/20 12:12:44;;;;;;;13.75;8.70;;;31.40;80.50;;;;;;7358273;32;20116;-63
2022/07/20 12:16:45;;;;;;;18.92;8.57;;;31.30;79.70;;;;;;7358053;32;20131;-63
2022/07/20 12:20:58;;;;;;;14.18;7.95;;;31.30;79.00;;;;;;7358785;32;20174;-63
2022/07/20 12:25:06;;;;;;;12.98;8.65;;;31.20;78.60;;;;;;7362577;32;20186;-63
2022/07/20 12:29:20;;;;;;;11.20;7.45;;;31.50;80.10;;;;;;7362599;32;20122;-63
2022/07/20 12:33:22;;;;;;;11.38;7.40;;;31.30;78.00;;;;;;7361668;32;20232;-64
2022/07/20 12:37:31;;;;;;;11.48;6.93;;;31.20;79.20;;;;;;7362666;32;20192;-64
2022/07/20 12:41:33;;;;;;;10.93;7.25;;;31.50;77.60;;;;;;7362065;32;20186;-63
2022/07/20 12:45:56;;;;;;;9.05;6.18;;;31.80;78.60;;;;;;7362534;32;20230;-63
2022/07/20 12:49:58;;;;;;;13.70;6.82;;;31.70;76.00;;;;;;7360748;32;20107;-63
2022/07/20 12:54:00;;;;;;;9.77;6.20;;;31.80;76.70;;;;;;7356577;32;20218;-63
2022/07/20 12:58:01;;;;;;;8.20;6.53;;;31.90;74.90;;;;;;7349114;32;20181;-63
2022/07/20 13:02:03;;;;;;;9.90;6.28;;;31.60;75.40;;;;;;7362336;32;20099;-63
2022/07/20 13:06:05;;;;;;;8.98;5.75;;;31.60;73.90;;;;;;7361537;32;20144;-63
2022/07/20 13:10:08;;;;;;;8.40;5.65;;;31.70;75.50;;;;;;7361161;32;20125;-64
2022/07/20 13:14:11;;;;;;;12.40;6.03;;;31.80;74.10;;;;;;7362253;32;20516;-63
2022/07/20 13:18:13;;;;;;;7.68;5.72;;;31.70;76.00;;;;;;7360825;32;20155;-64
2022/07/20 13:22:15;;;;;;;10.15;5.40;;;31.90;75.20;;;;;;7361024;32;20130;-63
2022/07/20 13:26:17;;;;;;;11.82;5.82;;;31.70;74.30;;;;;;7361544;32;20119;-63
2022/07/20 13:30:18;;;;;;;7.62;5.53;;;31.40;74.50;;;;;;7360517;32;20107;-64
2022/07/20 13:34:20;;;;;;;9.05;5.53;;;31.60;76.00;;;;;;7360276;32;20217;-63
2022/07/20 13:38:22;;;;;;;10.93;5.72;;;31.90;75.40;;;;;;7359850;32;20119;-63
2022/07/20 13:42:24;;;;;;;9.90;5.22;;;31.10;73.10;;;;;;7361123;32;20100;-63
2022/07/20 13:46:27;;;;;;;12.48;5.80;;;30.50;75.90;;;;;;7361176;32;20159;-63
2022/07/20 13:50:30;;;;;;;10.32;5.45;;;30.10;76.10;;;;;;7359346;32;20163;-63
2022/07/20 13:54:52;;;;;;;8.45;5.60;;;30.10;78.00;;;;;;7359997;32;20103;-63
2022/07/20 13:58:53;;;;;;;9.77;5.75;;;29.90;77.10;;;;;;7340514;32;20204;-63
2022/07/20 14:02:56;;;;;;;11.85;5.47;;;29.70;78.40;;;;;;7334521;32;20108;-62
2022/07/20 14:07:01;;;;;;;10.02;6.03;;;29.40;80.20;;;;;;7334955;32;20217;-62
2022/07/20 14:11:03;;;;;;;10.40;5.87;;;29.20;81.00;;;;;;7351654;32;20168;-62
2022/07/20 14:15:10;;;;;;;11.57;6.75;;;28.90;90.20;;;;;;7360584;32;20234;-62
2022/07/20 14:19:12;;;;;;;10.13;6.18;;;28.60;95.20;;;;;;7359744;32;20172;-63
2022/07/20 14:23:14;;;;;;;11.82;7.10;;;28.50;95.30;;;;;;7359718;32;20194;-64
2022/07/20 14:27:15;;;;;;;12.20;6.82;;;28.10;96.90;;;;;;7359665;32;20095;-63
2022/07/20 14:31:17;;;;;;;9.05;5.82;;;28.10;95.60;;;;;;7359666;32;20100;-63
2022/07/20 14:35:19;;;;;;;9.70;6.03;;;28.00;95.60;;;;;;7359850;32;20773;-63
2022/07/20 14:39:21;;;;;;;9.43;6.15;;;28.60;93.20;;;;;;7357883;32;20574;-63
2022/07/20 14:43:23;;;;;;;8.32;5.45;;;28.80;93.60;;;;;;7358858;32;20131;-63
2022/07/20 14:47:25;;;;;;;75.78;16.65;;;29.20;92.50;;;;;;7359784;32;20470;-63
2022/07/20 14:51:27;;;;;;;19.17;6.93;;;29.80;93.00;;;;;;7358780;32;20122;-65
2022/07/20 14:55:29;;;;;;;11.82;5.85;;;30.20;87.90;;;;;;7358621;32;20125;-63
2022/07/20 14:59:30;;;;;;;6.80;5.65;;;30.00;86.10;;;;;;7334746;32;20174;-63
2022/07/20 15:03:32;;;;;;;9.88;6.12;;;29.60;87.90;;;;;;7333648;32;20187;-63
2022/07/20 15:07:37;;;;;;;6.80;5.57;;;29.20;88.90;;;;;;7338144;32;20694;-63
2022/07/20 15:11:39;;;;;;;13.00;10.10;;;29.40;90.10;;;;;;7358647;32;20121;-63
2022/07/20 15:15:40;;;;;;;9.70;6.53;;;29.70;90.20;;;;;;7358099;32;20157;-63
2022/07/20 15:19:42;;;;;;;10.93;5.87;;;29.70;89.60;;;;;;7357933;32;20153;-63
2022/07/20 15:23:44;;;;;;;14.35;6.18;;;29.50;88.30;;;;;;7358247;32;20102;-63
2022/07/20 15:27:46;;;;;;;10.30;5.60;;;29.30;90.10;;;;;;7357816;32;20148;-63
2022/07/20 15:31:48;;;;;;;13.32;6.32;;;29.40;90.00;;;;;;7358232;32;20564;-63
2022/07/20 15:36:10;;;;;;;9.35;6.45;;;29.40;92.00;;;;;;7358285;32;20228;-63
2022/07/20 15:40:11;;;;;;;10.63;6.28;;;29.30;91.60;;;;;;7357633;32;20126;-63
2022/07/20 15:44:13;;;;;;;9.50;6.70;;;29.50;92.40;;;;;;7358043;32;20191;-63
2022/07/20 15:48:15;;;;;;;12.93;6.70;;;29.60;91.70;;;;;;7357450;32;20103;-63
2022/07/20 15:52:17;;;;;;;11.77;6.57;;;29.30;91.40;;;;;;7357568;32;20107;-63
2022/07/20 15:56:19;;;;;;;9.57;5.85;;;29.40;90.10;;;;;;7339807;32;20170;-63
2022/07/20 16:00:30;;;;;;;12.43;6.55;;;29.30;90.30;;;;;;7356917;32;20126;-63
2022/07/20 16:04:32;;;;;;;8.52;5.75;;;29.50;88.90;;;;;;7357973;32;20146;-63
2022/07/20 16:08:34;;;;;;;8.15;6.15;;;29.40;88.70;;;;;;7357119;32;20568;-63
2022/07/20 16:12:36;;;;;;;12.70;6.05;;;29.40;89.20;;;;;;7357586;32;20122;-63
2022/07/20 16:16:38;;;;;;;8.73;6.03;;;29.30;90.00;;;;;;7358092;32;20111;-63
2022/07/20 16:20:40;;;;;;;8.77;5.68;;;28.90;91.20;;;;;;7357377;32;20215;-63
2022/07/20 16:24:42;;;;;;;8.25;5.62;;;28.50;91.70;;;;;;7358129;32;20179;-62
2022/07/20 16:28:44;;;;;;;8.70;6.00;;;28.50;90.70;;;;;;7356238;32;20584;-62
2022/07/20 16:32:47;;;;;;;9.25;5.57;;;28.40;91.20;;;;;;7357533;32;20139;-62
2022/07/20 16:36:49;;;;;;;8.55;5.72;;;28.50;91.00;;;;;;7357891;32;20765;-62
2022/07/20 16:40:51;;;;;;;6.82;5.05;;;28.30;91.40;;;;;;7356910;32;20206;-63
2022/07/20 16:44:52;;;;;;;7.22;5.18;;;28.20;91.30;;;;;;7356695;32;20114;-63
2022/07/20 16:48:54;;;;;;;8.68;5.43;;;28.20;91.50;;;;;;7356840;32;20100;-63
2022/07/20 16:52:58;;;;;;;8.35;5.62;;;28.20;91.30;;;;;;7358169;32;20397;-63
2022/07/20 16:57:06;;;;;;;10.20;5.70;;;28.10;90.70;;;;;;7334819;32;20088;-62
2022/07/20 17:01:07;;;;;;;9.57;5.37;;;28.00;91.30;;;;;;7343413;32;20451;-63
2022/07/20 17:05:09;;;;;;;13.55;5.47;;;28.10;91.90;;;;;;7357369;32;20118;-63
2022/07/20 17:09:11;;;;;;;8.27;5.60;;;28.10;92.10;;;;;;7360084;32;20217;-63
2022/07/20 17:13:13;;;;;;;10.43;5.53;;;28.20;92.20;;;;;;7336255;32;20491;-64
2022/07/20 17:17:15;;;;;;;8.80;5.45;;;28.20;92.00;;;;;;7336499;32;20112;-64
2022/07/20 17:21:16;;;;;;;11.75;10.55;;;28.10;91.90;;;;;;7348064;32;20159;-63
2022/07/20 17:25:18;;;;;;;14.10;11.35;;;28.00;92.00;;;;;;7362307;32;20155;-63
2022/07/20 17:29:21;;;;;;;12.32;10.32;;;27.90;92.10;;;;;;7360546;32;20475;-63
2022/07/20 17:33:22;;;;;;;13.50;9.32;;;27.80;92.00;;;;;;7361730;32;20467;-64
2022/07/20 17:37:24;;;;;;;14.38;10.50;;;27.70;92.30;;;;;;7362386;32;20769;-63
2022/07/20 17:41:26;;;;;;;11.48;8.93;;;27.70;92.80;;;;;;7360040;32;20170;-65
2022/07/20 17:45:27;;;;;;;10.25;6.22;;;27.60;93.30;;;;;;7360730;32;20206;-63
2022/07/20 17:49:32;;;;;;;6.12;5.53;;;27.50;94.00;;;;;;7359423;32;20167;-62
2022/07/20 17:53:34;;;;;;;7.40;5.37;;;27.60;94.00;;;;;;7357926;32;20104;-63
2022/07/20 17:57:36;;;;;;;8.68;4.50;;;27.50;92.40;;;;;;7345207;32;20123;-63
2022/07/20 18:01:37;;;;;;;8.15;4.70;;;27.60;91.50;;;;;;7359553;32;20533;-64
2022/07/20 18:05:40;;;;;;;7.10;4.57;;;27.30;90.90;;;;;;7361512;32;20157;-64
2022/07/20 18:09:41;;;;;;;9.80;5.00;;;27.20;90.20;;;;;;7360775;32;20754;-64
2022/07/20 18:13:43;;;;;;;6.57;4.37;;;27.20;89.60;;;;;;7361728;32;20543;-64
2022/07/20 18:17:45;;;;;;;7.80;4.93;;;27.10;90.20;;;;;;7360577;32;20100;-64
2022/07/20 18:21:53;;;;;;;7.25;4.82;;;27.00;90.50;;;;;;7360777;32;20103;-65
2022/07/20 18:25:55;;;;;;;7.43;5.25;;;26.90;90.40;;;;;;7361337;32;20111;-65
2022/07/20 18:29:57;;;;;;;10.32;5.28;;;26.80;91.40;;;;;;7360730;32;20107;-64
2022/07/20 18:34:02;;;;;;;6.65;5.20;;;26.70;91.30;;;;;;7361254;32;20120;-64
2022/07/20 18:38:04;;;;;;;6.82;5.28;;;26.60;92.00;;;;;;7360369;32;20126;-65
2022/07/20 18:42:05;;;;;;;7.85;5.40;;;26.50;92.40;;;;;;7360043;32;20174;-64
2022/07/20 18:46:08;;;;;;;6.62;5.37;;;26.40;92.80;;;;;;7360759;32;20559;-64
2022/07/20 18:50:10;;;;;;;9.75;5.37;;;26.30;93.00;;;;;;7359387;32;20111;-64
2022/07/20 18:54:12;;;;;;;7.05;5.57;;;26.10;93.60;;;;;;7360248;32;20144;-64
2022/07/20 18:58:15;;;;;;;8.90;6.43;;;26.10;93.50;;;;;;7344824;32;20186;-64
2022/07/20 19:02:16;;;;;;;9.35;5.93;;;26.00;94.00;;;;;;7352665;32;20123;-63
2022/07/20 19:06:19;;;;;;;8.95;6.12;;;26.00;94.20;;;;;;7360594;32;20128;-64
2022/07/20 19:10:21;;;;;;;9.40;6.07;;;25.90;95.70;;;;;;7358980;32;20238;-64
2022/07/20 19:14:42;;;;;;;9.52;6.45;;;25.70;96.90;;;;;;7358873;32;20118;-64
2022/07/20 19:18:45;;;;;;;13.88;6.93;;;25.80;96.20;;;;;;7359742;32;20144;-64
2022/07/20 19:22:47;;;;;;;10.18;7.43;;;25.60;97.20;;;;;;7359210;32;20120;-64
2022/07/20 19:26:50;;;;;;;9.30;6.82;;;25.50;97.20;;;;;;7359608;32;20115;-64
2022/07/20 19:30:51;;;;;;;10.57;7.07;;;25.40;97.50;;;;;;7357891;32;20190;-63
2022/07/20 19:34:53;;;;;;;10.13;6.80;;;25.40;98.30;;;;;;7360364;32;20119;-65
2022/07/20 19:38:57;;;;;;;8.65;7.07;;;25.30;98.60;;;;;;7358774;32;20586;-65
2022/07/20 19:42:59;;;;;;;11.43;6.80;;;25.20;99.30;;;;;;7358616;32;20182;-64
2022/07/20 19:47:00;;;;;;;10.60;7.20;;;25.10;99.80;;;;;;7358829;32;20511;-64
2022/07/20 19:51:02;;;;;;;9.93;6.90;;;25.10;99.90;;;;;;7358281;32;20121;-62
2022/07/20 19:55:05;;;;;;;13.80;7.82;;;25.00;99.90;;;;;;7346402;32;20103;-62
2022/07/20 19:59:06;;;;;;;10.63;7.43;;;24.90;99.90;;;;;;7352976;32;20099;-61
2022/07/20 20:03:08;;;;;;;10.88;7.50;;;24.70;99.90;;;;;;7358481;32;20440;-62
2022/07/20 20:07:10;;;;;;;10.82;7.25;;;24.60;99.90;;;;;;7359763;32;20195;-62
2022/07/20 20:11:12;;;;;;;8.95;7.87;;;24.40;99.90;;;;;;7357117;32;20226;-62
2022/07/20 20:15:14;;;;;;;11.32;7.15;;;24.30;99.90;;;;;;7358678;32;20104;-62
2022/07/20 20:19:15;;;;;;;12.18;7.90;;;24.10;99.90;;;;;;7358422;32;20560;-61
2022/07/20 20:23:17;;;;;;;10.40;8.13;;;24.00;99.90;;;;;;7359248;32;20117;-62
2022/07/20 20:27:19;;;;;;;10.25;8.23;;;23.90;99.90;;;;;;7358141;32;20171;-66
2022/07/20 20:31:21;;;;;;;12.00;8.10;;;23.90;99.90;;;;;;7357141;32;20778;-63
2022/07/20 20:35:23;;;;;;;11.48;8.43;;;23.90;99.90;;;;;;7358964;32;20544;-62
2022/07/20 20:39:24;;;;;;;11.73;8.30;;;23.80;99.90;;;;;;7358071;32;20114;-62
2022/07/20 20:43:26;;;;;;;14.25;7.70;;;23.80;99.90;;;;;;7361349;32;20168;-61
2022/07/20 20:47:28;;;;;;;12.35;8.48;;;23.70;99.90;;;;;;7363769;32;20529;-62
2022/07/20 20:51:32;;;;;;;12.00;8.57;;;23.70;99.90;;;;;;7362193;32;20167;-62